Naples, Florida
Current Conditions -  °F | °C
As of 4:53 PM on Monday 26 Jan 2015 (Local Time) from KAPF Reporting Station
Broken Clouds Broken Clouds  
Wind Chill: 68°   Ceiling: 4700
Heat Index: 68°   Visibility: 10mi
Dew Point: 49°   Wind: 18mph
Humidity: 50%   Direction: 290°WNW
Pressure: 29.93"   Gusts: 30mph
Location:  26.14°N, 81.79°W
Report Text: KAPF 262153Z 29016G26KT 10SM BKN047 BKN055 20/09 A2993 RMK AO2 PK WND 29032/2058 SLP133 T02000094
Loading
Personal Weather Stations






























Interactive Weather Map New forecast layout! Learn more

10-Day Weather Forecast

Advertisements
Track Severe Weather on mobile